Time;durP1;ratioP1;P1;durP2;ratioP2;P2;SDS_P1;SDS_P2;PMS_P1;PMS_P2;Temp;Humidity;BMP_temperature;BMP_pressure;BME280_temperature;BME280_humidity;BME280_pressure;Samples;Min_cycle;Max_cycle;Signal;HPM_P1;HPM_P2
2021/03/17 00:00:40;;;;;;;10.85;7.90;;;;;;;;;;5016292;28;20025;-81
2021/03/17 00:03:06;;;;;;;11.30;7.05;;;;;;;;;;5016148;28;20025;-80
2021/03/17 00:05:34;;;;;;;10.18;8.30;;;;;;;;;;5016279;28;20037;-81
2021/03/17 00:08:00;;;;;;;11.00;8.50;;;;;;;;;;5016286;28;20353;-81
2021/03/17 00:10:27;;;;;;;10.20;7.68;;;;;;;;;;5015849;28;20100;-81
2021/03/17 00:12:54;;;;;;;9.68;7.53;;;;;;;;;;5015948;28;20109;-81
2021/03/17 00:15:24;;;;;;;12.65;8.15;;;;;;;;;;5015937;28;20030;-80
2021/03/17 00:17:50;;;;;;;13.35;7.75;;;;;;;;;;5015906;28;20062;-81
2021/03/17 00:20:16;;;;;;;9.02;8.02;;;;;;;;;;5015864;28;20022;-81
2021/03/17 00:22:43;;;;;;;9.88;7.32;;;;;;;;;;4998332;28;20026;-82
2021/03/17 00:25:10;;;;;;;8.23;6.60;;;;;;;;;;5015761;28;20034;-83
2021/03/17 00:27:36;;;;;;;8.00;7.20;;;;;;;;;;5015493;28;20044;-81
2021/03/17 00:30:03;;;;;;;7.97;6.30;;;;;;;;;;5016132;28;20018;-80
2021/03/17 00:32:29;;;;;;;7.55;5.70;;;;;;;;;;5015409;28;20037;-80
2021/03/17 00:34:55;;;;;;;7.25;6.07;;;;;;;;;;5015682;28;20033;-81
2021/03/17 00:37:21;;;;;;;8.23;6.25;;;;;;;;;;5015636;28;20480;-82
2021/03/17 00:39:47;;;;;;;7.85;6.05;;;;;;;;;;5015802;28;20481;-81
2021/03/17 00:42:13;;;;;;;8.68;6.57;;;;;;;;;;5015656;28;20053;-80
2021/03/17 00:44:40;;;;;;;7.70;6.10;;;;;;;;;;5015333;28;20447;-80
2021/03/17 00:47:06;;;;;;;7.72;6.38;;;;;;;;;;5015314;28;20052;-82
2021/03/17 00:49:34;;;;;;;8.40;5.63;;;;;;;;;;4997557;28;20392;-84
2021/03/17 00:52:00;;;;;;;7.55;5.90;;;;;;;;;;5015346;28;20388;-79
2021/03/17 00:54:26;;;;;;;5.82;5.32;;;;;;;;;;5014981;28;20393;-84
2021/03/17 00:56:53;;;;;;;7.53;6.85;;;;;;;;;;4997689;28;20030;-81
2021/03/17 00:59:19;;;;;;;6.68;6.00;;;;;;;;;;5015182;28;20504;-86
2021/03/17 01:01:45;;;;;;;7.97;6.90;;;;;;;;;;5015018;28;20029;-81
2021/03/17 01:04:11;;;;;;;6.40;5.75;;;;;;;;;;4997537;28;20484;-80
2021/03/17 01:06:38;;;;;;;7.53;6.78;;;;;;;;;;5014522;28;20068;-84
2021/03/17 01:09:04;;;;;;;6.22;5.40;;;;;;;;;;5014943;28;20026;-81
2021/03/17 01:11:30;;;;;;;7.43;5.75;;;;;;;;;;5014782;28;20030;-80
2021/03/17 01:13:56;;;;;;;5.80;5.18;;;;;;;;;;5015143;28;20066;-81
2021/03/17 01:16:23;;;;;;;8.45;6.15;;;;;;;;;;5014942;28;20116;-82
2021/03/17 01:18:49;;;;;;;5.85;5.20;;;;;;;;;;5014723;28;20033;-81
2021/03/17 01:21:15;;;;;;;6.32;5.47;;;;;;;;;;5014734;28;20511;-80
2021/03/17 01:23:41;;;;;;;9.35;5.70;;;;;;;;;;5014597;28;20028;-81
2021/03/17 01:26:07;;;;;;;9.23;5.85;;;;;;;;;;5014658;28;20129;-82
2021/03/17 01:28:33;;;;;;;7.88;6.15;;;;;;;;;;5014543;28;20033;-81
2021/03/17 01:30:59;;;;;;;6.63;5.50;;;;;;;;;;5014669;28;20036;-81
2021/03/17 01:33:27;;;;;;;6.30;5.35;;;;;;;;;;5014610;28;20038;-81
2021/03/17 01:35:53;;;;;;;9.15;5.55;;;;;;;;;;5014621;28;20041;-81
2021/03/17 01:38:19;;;;;;;8.88;5.90;;;;;;;;;;5014514;28;20041;-85
2021/03/17 01:40:46;;;;;;;5.55;5.00;;;;;;;;;;5014114;28;20040;-81
2021/03/17 01:43:12;;;;;;;9.10;6.50;;;;;;;;;;5014486;28;20033;-82
2021/03/17 01:45:39;;;;;;;7.97;5.22;;;;;;;;;;5014258;28;20030;-81
2021/03/17 01:48:06;;;;;;;5.65;4.88;;;;;;;;;;5014191;28;20060;-81
2021/03/17 01:50:42;;;;;;;5.75;4.40;;;;;;;;;;5014383;28;20139;-82
2021/03/17 01:53:09;;;;;;;5.35;4.60;;;;;;;;;;5014281;28;20263;-80
2021/03/17 01:55:36;;;;;;;7.68;5.22;;;;;;;;;;4996174;28;20029;-82
2021/03/17 01:58:02;;;;;;;6.32;5.13;;;;;;;;;;5014172;28;20497;-81
2021/03/17 02:00:28;;;;;;;8.80;4.95;;;;;;;;;;5013978;28;20492;-81
2021/03/17 02:02:54;;;;;;;5.30;4.80;;;;;;;;;;5013932;28;20022;-83
2021/03/17 02:05:26;;;;;;;9.10;5.40;;;;;;;;;;5013950;28;20500;-82
2021/03/17 02:07:57;;;;;;;9.23;5.10;;;;;;;;;;4996478;28;20513;-82
2021/03/17 02:10:23;;;;;;;6.60;4.45;;;;;;;;;;5013917;28;20105;-77
2021/03/17 02:13:00;;;;;;;8.32;4.50;;;;;;;;;;5013875;28;20029;-81
2021/03/17 02:15:33;;;;;;;4.47;4.03;;;;;;;;;;5013464;28;20037;-81
2021/03/17 02:18:04;;;;;;;6.82;4.20;;;;;;;;;;5013665;28;20048;-81
2021/03/17 02:20:50;;;;;;;9.93;4.90;;;;;;;;;;5013616;28;20104;-82
2021/03/17 02:23:29;;;;;;;13.13;5.28;;;;;;;;;;5013471;28;20030;-82
2021/03/17 02:26:08;;;;;;;6.35;4.18;;;;;;;;;;4995803;28;20109;-81
2021/03/17 02:28:40;;;;;;;6.20;5.38;;;;;;;;;;5013566;28;20029;-82
2021/03/17 02:31:25;;;;;;;6.32;4.50;;;;;;;;;;5013614;28;20088;-83
2021/03/17 02:33:54;;;;;;;7.20;4.43;;;;;;;;;;5013513;28;20380;-80
2021/03/17 02:36:38;;;;;;;6.32;4.90;;;;;;;;;;4995696;28;20030;-85
2021/03/17 02:39:07;;;;;;;11.65;5.30;;;;;;;;;;5013461;28;20041;-85
2021/03/17 02:41:34;;;;;;;7.13;4.93;;;;;;;;;;4995844;28;20120;-82
2021/03/17 02:44:02;;;;;;;5.50;4.03;;;;;;;;;;5013278;28;20037;-83
2021/03/17 02:46:28;;;;;;;8.40;4.63;;;;;;;;;;4995669;28;20487;-82
2021/03/17 02:49:15;;;;;;;9.05;5.15;;;;;;;;;;4995707;28;20022;-80
2021/03/17 02:51:42;;;;;;;6.35;4.45;;;;;;;;;;4999747;28;20042;-80
2021/03/17 02:54:10;;;;;;;5.18;3.33;;;;;;;;;;5013218;28;20480;-83
2021/03/17 02:56:38;;;;;;;7.82;4.03;;;;;;;;;;5013051;28;20481;-81
2021/03/17 02:59:04;;;;;;;5.97;4.10;;;;;;;;;;5013201;28;20034;-83
2021/03/17 03:01:31;;;;;;;6.18;3.85;;;;;;;;;;5013072;28;20029;-83
2021/03/17 03:03:58;;;;;;;4.40;3.50;;;;;;;;;;5012685;28;20026;-82
2021/03/17 03:06:26;;;;;;;6.60;4.60;;;;;;;;;;4995515;28;20101;-82
2021/03/17 03:08:53;;;;;;;7.45;4.18;;;;;;;;;;5012747;28;20156;-82
2021/03/17 03:11:19;;;;;;;4.63;3.30;;;;;;;;;;5012822;28;20072;-83
2021/03/17 03:13:45;;;;;;;5.88;4.07;;;;;;;;;;5012694;28;20033;-83
2021/03/17 03:16:13;;;;;;;6.28;4.10;;;;;;;;;;4995509;28;20037;-77
2021/03/17 03:18:39;;;;;;;4.93;3.80;;;;;;;;;;5012890;28;20033;-81
2021/03/17 03:21:07;;;;;;;4.70;3.47;;;;;;;;;;5012698;28;20022;-81
2021/03/17 03:23:34;;;;;;;6.03;3.53;;;;;;;;;;5012852;28;20026;-85
2021/03/17 03:26:01;;;;;;;5.55;3.35;;;;;;;;;;5012627;28;20018;-80
2021/03/17 03:28:27;;;;;;;5.63;3.47;;;;;;;;;;5012711;28;20080;-81
2021/03/17 03:30:54;;;;;;;5.90;3.78;;;;;;;;;;5012046;28;20045;-81
2021/03/17 03:33:22;;;;;;;6.00;3.80;;;;;;;;;;5012811;28;20022;-79
2021/03/17 03:35:48;;;;;;;6.35;3.17;;;;;;;;;;4994798;28;20496;-81
2021/03/17 03:38:14;;;;;;;6.63;3.33;;;;;;;;;;5012487;28;20062;-82
2021/03/17 03:40:41;;;;;;;6.32;3.25;;;;;;;;;;5012779;28;20053;-80
2021/03/17 03:43:09;;;;;;;6.22;3.83;;;;;;;;;;5012332;28;20044;-81
2021/03/17 03:45:36;;;;;;;9.25;4.18;;;;;;;;;;5012456;28;20025;-80
2021/03/17 03:48:06;;;;;;;6.35;4.18;;;;;;;;;;5011960;28;20078;-82
2021/03/17 03:50:34;;;;;;;8.68;3.90;;;;;;;;;;5012492;28;20040;-81
2021/03/17 03:53:10;;;;;;;7.53;4.22;;;;;;;;;;5012329;28;20022;-81
2021/03/17 03:55:39;;;;;;;6.20;3.30;;;;;;;;;;5012452;28;20098;-80
2021/03/17 03:58:08;;;;;;;5.35;3.63;;;;;;;;;;5012328;28;20048;-83
2021/03/17 04:00:34;;;;;;;5.90;3.95;;;;;;;;;;5012417;28;20026;-81
2021/03/17 04:03:01;;;;;;;5.78;3.83;;;;;;;;;;5012163;28;20034;-79
2021/03/17 04:05:34;;;;;;;10.27;3.63;;;;;;;;;;5012547;28;20026;-81
2021/03/17 04:08:05;;;;;;;6.95;3.55;;;;;;;;;;5012437;28;20034;-81
2021/03/17 04:10:31;;;;;;;7.68;3.83;;;;;;;;;;5012103;28;20076;-80
2021/03/17 04:12:58;;;;;;;10.50;4.18;;;;;;;;;;5012193;28;20040;-79
2021/03/17 04:15:25;;;;;;;4.38;3.55;;;;;;;;;;5012122;28;20131;-79
2021/03/17 04:18:01;;;;;;;7.32;3.55;;;;;;;;;;5012300;28;20065;-81
2021/03/17 04:20:30;;;;;;;9.07;3.97;;;;;;;;;;5012053;28;20108;-81
2021/03/17 04:22:57;;;;;;;6.05;4.20;;;;;;;;;;5012250;28;20037;-80
2021/03/17 04:25:23;;;;;;;6.47;4.15;;;;;;;;;;4994401;28;20037;-78
2021/03/17 04:27:51;;;;;;;8.80;4.30;;;;;;;;;;5012190;28;20029;-82
2021/03/17 04:30:18;;;;;;;10.30;3.90;;;;;;;;;;5012041;28;20053;-81
2021/03/17 04:32:45;;;;;;;8.88;5.53;;;;;;;;;;5012155;28;20037;-81
2021/03/17 04:35:12;;;;;;;7.75;4.47;;;;;;;;;;5012186;28;20108;-82
2021/03/17 04:37:39;;;;;;;8.40;4.55;;;;;;;;;;5011944;28;20127;-84
2021/03/17 04:40:06;;;;;;;6.82;3.50;;;;;;;;;;5012094;28;20041;-82
2021/03/17 04:42:32;;;;;;;8.80;3.88;;;;;;;;;;5012773;28;20468;-81
2021/03/17 04:44:59;;;;;;;8.13;4.53;;;;;;;;;;4997856;28;20519;-81
2021/03/17 04:47:26;;;;;;;5.68;3.63;;;;;;;;;;5015038;28;20053;-83
2021/03/17 04:49:53;;;;;;;7.22;5.32;;;;;;;;;;5015469;28;20790;-81
2021/03/17 04:52:20;;;;;;;6.03;3.88;;;;;;;;;;5015521;28;20026;-81
2021/03/17 04:54:46;;;;;;;6.75;3.80;;;;;;;;;;5015456;28;20029;-80
2021/03/17 04:57:18;;;;;;;5.00;3.78;;;;;;;;;;4997715;28;20046;-81
2021/03/17 04:59:46;;;;;;;7.32;3.50;;;;;;;;;;5015888;28;20565;-82
2021/03/17 05:02:12;;;;;;;8.02;3.75;;;;;;;;;;5015190;28;20033;-78
2021/03/17 05:04:40;;;;;;;5.65;3.97;;;;;;;;;;5015237;28;20397;-78
2021/03/17 05:07:06;;;;;;;7.63;4.15;;;;;;;;;;5015111;28;20049;-82
2021/03/17 05:09:33;;;;;;;6.30;4.05;;;;;;;;;;5014924;28;20037;-81
2021/03/17 05:12:00;;;;;;;7.32;4.15;;;;;;;;;;5015177;28;20022;-80
2021/03/17 05:14:27;;;;;;;6.28;4.32;;;;;;;;;;5015074;28;20026;-80
2021/03/17 05:16:53;;;;;;;8.10;4.53;;;;;;;;;;5014947;28;20034;-81
2021/03/17 05:19:20;;;;;;;8.93;4.18;;;;;;;;;;5014863;28;20030;-83
2021/03/17 05:21:47;;;;;;;4.60;4.07;;;;;;;;;;5014951;28;20058;-81
2021/03/17 05:24:13;;;;;;;7.10;3.85;;;;;;;;;;5014742;28;20062;-80
2021/03/17 05:26:40;;;;;;;6.57;4.45;;;;;;;;;;5014709;28;20385;-80
2021/03/17 05:29:07;;;;;;;7.20;4.65;;;;;;;;;;5014915;28;20029;-84
2021/03/17 05:31:34;;;;;;;5.07;4.13;;;;;;;;;;5014587;28;20029;-82
2021/03/17 05:34:00;;;;;;;6.85;5.18;;;;;;;;;;5014925;28;20026;-82
2021/03/17 05:36:26;;;;;;;6.07;4.30;;;;;;;;;;5014690;28;20042;-83
2021/03/17 05:38:53;;;;;;;8.70;4.72;;;;;;;;;;5014458;28;20030;-80
2021/03/17 05:41:20;;;;;;;6.30;4.80;;;;;;;;;;5014598;28;20100;-83
2021/03/17 05:43:48;;;;;;;7.65;4.30;;;;;;;;;;5014501;28;20088;-82
2021/03/17 05:46:14;;;;;;;6.18;5.57;;;;;;;;;;5013770;28;20096;-79
2021/03/17 05:48:42;;;;;;;8.60;5.97;;;;;;;;;;5014239;28;20546;-81
2021/03/17 05:51:08;;;;;;;6.82;5.05;;;;;;;;;;4996688;28;20069;-80
2021/03/17 05:53:34;;;;;;;6.97;5.10;;;;;;;;;;5013791;28;20029;-81
2021/03/17 05:56:01;;;;;;;7.45;5.25;;;;;;;;;;5014306;28;20388;-80
2021/03/17 05:58:27;;;;;;;5.00;4.47;;;;;;;;;;5013883;28;20040;-80
2021/03/17 06:00:53;;;;;;;9.10;5.55;;;;;;;;;;5014280;28;20113;-80
2021/03/17 06:03:20;;;;;;;8.40;5.95;;;;;;;;;;5014102;28;20061;-84
2021/03/17 06:05:46;;;;;;;8.80;5.40;;;;;;;;;;5014025;28;20058;-80
2021/03/17 06:08:24;;;;;;;12.77;7.97;;;;;;;;;;5013935;28;20030;-81
2021/03/17 06:10:51;;;;;;;5.78;4.85;;;;;;;;;;4996524;28;20183;-80
2021/03/17 06:13:20;;;;;;;7.95;5.25;;;;;;;;;;5013387;28;20053;-80
2021/03/17 06:15:50;;;;;;;6.15;5.18;;;;;;;;;;5013937;28;20093;-83
2021/03/17 06:18:21;;;;;;;10.18;7.13;;;;;;;;;;5013676;28;20085;-81
2021/03/17 06:20:47;;;;;;;5.70;5.15;;;;;;;;;;5013900;28;20085;-82
2021/03/17 06:23:14;;;;;;;9.23;6.85;;;;;;;;;;5013586;28;20034;-80
2021/03/17 06:25:44;;;;;;;10.85;6.43;;;;;;;;;;5013620;28;20376;-78
2021/03/17 06:28:14;;;;;;;5.18;4.53;;;;;;;;;;5013072;28;20018;-81
2021/03/17 06:30:50;;;;;;;5.15;4.45;;;;;;;;;;5006835;28;20030;-82
2021/03/17 06:33:16;;;;;;;5.82;4.72;;;;;;;;;;4974721;28;20093;-82
2021/03/17 06:35:42;;;;;;;7.82;5.07;;;;;;;;;;4990118;28;20037;-80
2021/03/17 06:38:20;;;;;;;5.78;4.65;;;;;;;;;;4992468;28;20077;-81
2021/03/17 06:40:56;;;;;;;5.55;4.65;;;;;;;;;;4994800;28;20420;-79
2021/03/17 06:43:22;;;;;;;6.95;5.28;;;;;;;;;;5000516;28;20870;-80
2021/03/17 06:45:49;;;;;;;5.68;4.85;;;;;;;;;;5002908;28;20026;-84
2021/03/17 06:48:18;;;;;;;5.85;4.40;;;;;;;;;;4976143;28;20053;-79
2021/03/17 06:50:44;;;;;;;8.23;5.25;;;;;;;;;;4994091;28;20044;-80
2021/03/17 06:53:11;;;;;;;5.90;4.68;;;;;;;;;;4997820;28;20058;-81
2021/03/17 06:55:37;;;;;;;5.95;5.35;;;;;;;;;;4998703;28;20031;-82
2021/03/17 06:58:03;;;;;;;6.38;4.80;;;;;;;;;;5004911;28;20103;-79
2021/03/17 07:00:34;;;;;;;8.25;5.68;;;;;;;;;;4992279;28;20481;-80
2021/03/17 07:03:07;;;;;;;7.90;5.22;;;;;;;;;;4987390;28;20034;-81
2021/03/17 07:05:46;;;;;;;10.25;6.43;;;;;;;;;;4995104;28;20564;-83
2021/03/17 07:08:14;;;;;;;7.45;5.90;;;;;;;;;;4991329;28;20060;-83
2021/03/17 07:10:42;;;;;;;7.28;5.30;;;;;;;;;;4990371;28;20035;-82
2021/03/17 07:13:09;;;;;;;5.82;5.10;;;;;;;;;;4991454;28;20412;-82
2021/03/17 07:15:37;;;;;;;7.50;5.85;;;;;;;;;;4999269;28;20089;-81
2021/03/17 07:18:12;;;;;;;6.72;5.70;;;;;;;;;;4997621;28;20453;-85
2021/03/17 07:20:40;;;;;;;7.28;6.30;;;;;;;;;;5000297;28;20038;-81
2021/03/17 07:23:25;;;;;;;11.02;8.65;;;;;;;;;;4997509;28;20425;-86
2021/03/17 07:26:10;;;;;;;10.52;7.65;;;;;;;;;;5009793;28;20026;-81
2021/03/17 07:28:55;;;;;;;7.00;5.55;;;;;;;;;;4989773;28;20071;-80
2021/03/17 07:31:21;;;;;;;;;;;;;;;;;;4973075;28;20027;-80
2021/03/17 07:33:47;;;;;;;8.98;6.93;;;;;;;;;;4989950;28;19929;-81
2021/03/17 07:36:29;;;;;;;7.80;6.95;;;;;;;;;;4990045;28;20105;-80
2021/03/17 07:38:56;;;;;;;5.57;4.68;;;;;;;;;;4990053;28;20169;-82
2021/03/17 07:41:24;;;;;;;8.40;7.38;;;;;;;;;;4990362;28;20037;-84
2021/03/17 07:43:53;;;;;;;9.15;6.32;;;;;;;;;;4990037;28;20136;-83
2021/03/17 07:46:20;;;;;;;7.03;4.90;;;;;;;;;;4972673;28;20062;-81
2021/03/17 07:48:46;;;;;;;6.20;5.10;;;;;;;;;;4990248;28;20031;-83
2021/03/17 07:51:12;;;;;;;6.57;5.18;;;;;;;;;;4989666;28;20069;-79
2021/03/17 07:53:39;;;;;;;12.57;8.38;;;;;;;;;;4999640;28;20037;-81
2021/03/17 07:56:06;;;;;;;8.43;5.80;;;;;;;;;;5009675;28;20030;-82
2021/03/17 07:58:32;;;;;;;5.35;4.78;;;;;;;;;;5009919;28;20077;-78
2021/03/17 08:00:58;;;;;;;6.43;4.45;;;;;;;;;;5007590;28;20491;-79
2021/03/17 08:03:25;;;;;;;5.30;4.55;;;;;;;;;;4994403;28;20033;-82
2021/03/17 08:05:51;;;;;;;5.55;3.65;;;;;;;;;;4994524;28;20388;-79
2021/03/17 08:08:18;;;;;;;5.85;4.53;;;;;;;;;;4996389;28;20052;-86
2021/03/17 08:10:45;;;;;;;7.05;5.07;;;;;;;;;;4996451;28;20070;-82
2021/03/17 08:13:14;;;;;;;5.60;3.97;;;;;;;;;;4996738;28;20025;-79
2021/03/17 08:15:43;;;;;;;5.60;4.28;;;;;;;;;;4997284;28;20045;-79
2021/03/17 08:18:28;;;;;;;9.63;7.22;;;;;;;;;;5000442;28;20097;-80
2021/03/17 08:20:54;;;;;;;;;;;;;;;;;;5003390;28;20040;-80
2021/03/17 08:23:39;;;;;;;6.20;4.65;;;;;;;;;;5000067;28;19913;-82
2021/03/17 08:26:05;;;;;;;;;;;;;;;;;;4998087;28;20030;-78
2021/03/17 08:28:31;;;;;;;6.68;5.40;;;;;;;;;;5001967;28;19917;-80
2021/03/17 08:30:58;;;;;;;7.25;4.53;;;;;;;;;;5007429;28;20562;-77
2021/03/17 08:33:41;;;;;;;7.85;4.97;;;;;;;;;;5005966;28;20037;-83
2021/03/17 08:36:07;;;;;;;6.75;5.30;;;;;;;;;;5008705;28;20082;-82
2021/03/17 08:38:51;;;;;;;6.38;5.70;;;;;;;;;;5013109;28;20050;-80
2021/03/17 08:41:38;;;;;;;7.30;5.68;;;;;;;;;;5005466;28;20042;-79
2021/03/17 08:44:10;;;;;;;6.22;5.25;;;;;;;;;;4993547;28;20022;-79
2021/03/17 08:46:38;;;;;;;8.07;5.22;;;;;;;;;;4997172;28;20081;-79
2021/03/17 08:49:05;;;;;;;5.88;4.68;;;;;;;;;;4999656;28;20026;-81
2021/03/17 08:51:58;;;;;;;7.38;4.32;;;;;;;;;;4984603;28;20388;-79
2021/03/17 08:54:30;;;;;;;10.77;6.72;;;;;;;;;;4995836;28;20042;-80
2021/03/17 08:57:15;;;;;;;7.15;5.10;;;;;;;;;;4994844;28;20034;-79
2021/03/17 08:59:41;;;;;;;7.97;6.68;;;;;;;;;;5000071;28;20029;-82
2021/03/17 09:02:25;;;;;;;8.60;5.30;;;;;;;;;;5001370;28;20380;-80
2021/03/17 09:04:52;;;;;;;7.63;6.07;;;;;;;;;;5011257;28;20026;-78
2021/03/17 09:07:18;;;;;;;9.43;5.22;;;;;;;;;;4996374;28;20540;-78
2021/03/17 09:10:05;;;;;;;11.07;7.80;;;;;;;;;;4995189;28;20065;-85
2021/03/17 09:12:34;;;;;;;5.85;3.50;;;;;;;;;;4999402;28;20048;-80
2021/03/17 09:15:12;;;;;;;8.15;4.20;;;;;;;;;;5012017;28;20022;-80
2021/03/17 09:17:44;;;;;;;7.18;4.53;;;;;;;;;;5001852;28;20129;-82
2021/03/17 09:20:13;;;;;;;9.85;6.40;;;;;;;;;;4992892;28;20037;-81
2021/03/17 09:22:57;;;;;;;12.02;6.25;;;;;;;;;;4992765;28;20045;-85
2021/03/17 09:25:23;;;;;;;;;;;;;;;;;;4992868;28;20034;-80
2021/03/17 09:27:53;;;;;;;9.73;6.25;;;;;;;;;;4994864;28;19921;-82
2021/03/17 09:30:20;;;;;;;5.78;4.00;;;;;;;;;;5004109;28;20432;-82
2021/03/17 09:32:47;;;;;;;9.98;7.13;;;;;;;;;;4992392;28;20031;-84
2021/03/17 09:35:25;;;;;;;8.70;4.63;;;;;;;;;;5001265;28;20436;-81
2021/03/17 09:37:59;;;;;;;7.25;3.90;;;;;;;;;;5012557;28;20041;-80
2021/03/17 09:40:25;;;;;;;8.95;6.35;;;;;;;;;;5001580;28;20129;-79
2021/03/17 09:42:51;;;;;;;5.70;4.55;;;;;;;;;;4998208;28;20026;-80
2021/03/17 09:45:17;;;;;;;6.75;3.67;;;;;;;;;;5010791;28;20022;-84
2021/03/17 09:47:44;;;;;;;4.57;3.03;;;;;;;;;;4969185;28;20524;-85
2021/03/17 09:50:18;;;;;;;6.80;5.10;;;;;;;;;;4992378;28;20030;-82
2021/03/17 09:52:44;;;;;;;10.95;7.97;;;;;;;;;;4990006;28;20026;-82
2021/03/17 09:55:29;;;;;;;5.15;4.05;;;;;;;;;;4997494;28;20500;-83
2021/03/17 09:58:03;;;;;;;4.82;3.88;;;;;;;;;;4990585;28;20121;-81
2021/03/17 10:00:30;;;;;;;6.28;3.70;;;;;;;;;;4993249;28;20077;-81
2021/03/17 10:02:57;;;;;;;5.63;3.40;;;;;;;;;;5011384;28;20034;-79
2021/03/17 10:05:23;;;;;;;8.05;3.83;;;;;;;;;;5012477;28;20030;-82
2021/03/17 10:07:49;;;;;;;8.77;6.10;;;;;;;;;;4993960;28;20030;-80
2021/03/17 10:10:15;;;;;;;6.82;5.03;;;;;;;;;;4992952;28;20485;-81
2021/03/17 10:12:43;;;;;;;4.78;3.75;;;;;;;;;;4992323;28;20022;-81
2021/03/17 10:15:21;;;;;;;8.57;5.20;;;;;;;;;;4992339;28;20500;-85
2021/03/17 10:17:47;;;;;;;5.60;4.15;;;;;;;;;;4991864;28;20061;-81
2021/03/17 10:20:15;;;;;;;7.47;4.60;;;;;;;;;;4992578;28;20057;-86
2021/03/17 10:22:42;;;;;;;7.28;5.00;;;;;;;;;;4992780;28;20038;-81
2021/03/17 10:25:09;;;;;;;10.02;6.03;;;;;;;;;;4992188;28;20235;-81
2021/03/17 10:27:37;;;;;;;10.43;8.10;;;;;;;;;;4974768;28;20026;-83
2021/03/17 10:30:22;;;;;;;7.90;5.65;;;;;;;;;;4991163;28;20030;-80
2021/03/17 10:32:48;;;;;;;12.07;8.00;;;;;;;;;;5002127;28;20066;-80
2021/03/17 10:35:16;;;;;;;10.57;7.28;;;;;;;;;;4992538;28;20136;-84
2021/03/17 10:37:42;;;;;;;7.88;5.13;;;;;;;;;;4992594;28;20392;-80
2021/03/17 10:40:17;;;;;;;10.98;6.53;;;;;;;;;;4990886;28;20070;-79
2021/03/17 10:43:03;;;;;;;6.63;5.30;;;;;;;;;;4973811;28;20069;-79
2021/03/17 10:45:31;;;;;;;9.70;5.65;;;;;;;;;;4961841;28;20485;-80
2021/03/17 10:47:57;;;;;;;9.13;5.50;;;;;;;;;;4989053;28;20049;-80
2021/03/17 10:50:33;;;;;;;8.40;5.97;;;;;;;;;;4984317;28;20141;-80
2021/03/17 10:52:59;;;;;;;9.98;6.13;;;;;;;;;;4994551;28;20102;-78
2021/03/17 10:55:29;;;;;;;8.07;6.10;;;;;;;;;;4991983;28;20022;-82
2021/03/17 10:58:09;;;;;;;8.75;5.63;;;;;;;;;;4973815;28;20038;-81
2021/03/17 11:00:35;;;;;;;9.75;6.32;;;;;;;;;;5002490;28;20034;-80
2021/03/17 11:03:01;;;;;;;6.25;4.50;;;;;;;;;;4992083;28;20034;-83
2021/03/17 11:05:28;;;;;;;9.43;5.43;;;;;;;;;;4993343;28;20038;-81
2021/03/17 11:07:58;;;;;;;9.68;4.63;;;;;;;;;;5006288;28;20050;-80
2021/03/17 11:10:42;;;;;;;5.25;4.55;;;;;;;;;;5000994;28;20030;-81
2021/03/17 11:13:08;;;;;;;8.27;5.70;;;;;;;;;;4989937;28;20074;-81
2021/03/17 11:15:36;;;;;;;7.07;6.13;;;;;;;;;;4992169;28;20085;-83
2021/03/17 11:18:05;;;;;;;7.85;4.30;;;;;;;;;;4989514;28;20101;-84
2021/03/17 11:20:31;;;;;;;7.07;5.20;;;;;;;;;;4974805;28;20038;-85
2021/03/17 11:22:57;;;;;;;7.60;5.78;;;;;;;;;;4990405;28;20034;-81
2021/03/17 11:25:24;;;;;;;8.65;5.28;;;;;;;;;;4992376;28;20035;-79
2021/03/17 11:27:50;;;;;;;6.95;4.80;;;;;;;;;;4980005;28;20504;-82
2021/03/17 11:30:17;;;;;;;5.95;3.55;;;;;;;;;;4992404;28;20483;-78
2021/03/17 11:32:43;;;;;;;3.92;3.42;;;;;;;;;;4975501;28;20152;-82
2021/03/17 11:35:21;;;;;;;;;;;;;;;;;;;;;
2021/03/17 11:37:48;;;;;;;8.07;5.47;;;;;;;;;;5011073;28;20052;-81
2021/03/17 11:40:14;;;;;;;5.30;4.20;;;;;;;;;;5009694;28;20045;-81
2021/03/17 11:42:40;;;;;;;9.68;5.68;;;;;;;;;;4998459;28;20081;-80
2021/03/17 11:45:07;;;;;;;8.60;5.30;;;;;;;;;;4991854;28;20019;-79
2021/03/17 11:47:33;;;;;;;6.50;4.60;;;;;;;;;;5010803;28;20441;-81
2021/03/17 11:49:59;;;;;;;10.60;7.07;;;;;;;;;;5004471;28;20065;-81
2021/03/17 11:52:25;;;;;;;11.68;5.88;;;;;;;;;;4978149;28;20670;-81
2021/03/17 11:54:51;;;;;;;9.30;6.32;;;;;;;;;;4996373;28;20018;-83
2021/03/17 11:57:17;;;;;;;7.68;5.50;;;;;;;;;;4996118;28;20101;-82
2021/03/17 11:59:43;;;;;;;7.22;5.40;;;;;;;;;;5006282;28;20641;-70
2021/03/17 12:02:09;;;;;;;5.55;4.20;;;;;;;;;;5003495;28;20026;-81
2021/03/17 12:04:35;;;;;;;9.88;6.78;;;;;;;;;;4995127;28;20026;-82
2021/03/17 12:07:02;;;;;;;6.88;5.32;;;;;;;;;;5003698;28;20030;-83
2021/03/17 12:09:28;;;;;;;7.65;5.05;;;;;;;;;;4991973;28;20489;-79
2021/03/17 12:11:57;;;;;;;10.05;5.90;;;;;;;;;;4974765;28;20397;-82
2021/03/17 12:14:23;;;;;;;9.65;4.07;;;;;;;;;;4993051;28;20072;-79
2021/03/17 12:16:49;;;;;;;7.90;5.13;;;;;;;;;;4990610;28;20113;-81
2021/03/17 12:19:15;;;;;;;8.38;5.55;;;;;;;;;;4997419;28;20835;-81
2021/03/17 12:21:41;;;;;;;7.28;5.50;;;;;;;;;;4994713;28;20035;-84
2021/03/17 12:24:08;;;;;;;6.35;4.68;;;;;;;;;;4994929;28;20026;-80
2021/03/17 12:26:34;;;;;;;6.35;4.70;;;;;;;;;;4994488;28;20094;-82
2021/03/17 12:29:00;;;;;;;6.43;4.30;;;;;;;;;;4997844;28;20100;-83
2021/03/17 12:31:28;;;;;;;6.18;3.83;;;;;;;;;;4994212;28;20488;-84
2021/03/17 12:33:54;;;;;;;8.23;5.13;;;;;;;;;;4976004;28;20515;-81
2021/03/17 12:36:20;;;;;;;4.40;3.42;;;;;;;;;;4994336;28;20075;-83
2021/03/17 12:38:47;;;;;;;6.20;4.25;;;;;;;;;;4993355;28;20114;-83
2021/03/17 12:41:13;;;;;;;4.68;3.83;;;;;;;;;;4994596;28;20029;-79
2021/03/17 12:43:39;;;;;;;8.73;6.50;;;;;;;;;;4992494;28;20045;-81
2021/03/17 12:46:05;;;;;;;9.50;5.63;;;;;;;;;;4982628;28;20031;-86
2021/03/17 12:48:32;;;;;;;10.07;6.53;;;;;;;;;;4981410;28;20053;-80
2021/03/17 12:50:59;;;;;;;8.50;5.88;;;;;;;;;;4996891;28;20041;-82
2021/03/17 12:53:25;;;;;;;7.45;5.28;;;;;;;;;;4994756;28;20118;-81
2021/03/17 12:55:51;;;;;;;8.38;5.30;;;;;;;;;;4994930;28;20026;-79
2021/03/17 12:58:17;;;;;;;5.80;4.88;;;;;;;;;;4994090;28;20039;-81
2021/03/17 13:00:43;;;;;;;5.70;3.95;;;;;;;;;;4994944;28;20105;-81
2021/03/17 13:03:09;;;;;;;5.05;4.40;;;;;;;;;;4999190;28;20034;-84
2021/03/17 13:05:35;;;;;;;6.63;5.53;;;;;;;;;;5006065;28;20605;-84
2021/03/17 13:08:01;;;;;;;6.03;5.35;;;;;;;;;;5006585;28;20033;-81
2021/03/17 13:10:28;;;;;;;10.02;5.07;;;;;;;;;;4994968;28;20026;-82
2021/03/17 13:12:54;;;;;;;9.18;5.55;;;;;;;;;;4993759;28;20049;-80
2021/03/17 13:15:21;;;;;;;7.80;5.93;;;;;;;;;;4995363;28;20448;-78
2021/03/17 13:17:47;;;;;;;6.88;5.05;;;;;;;;;;4999036;28;20093;-84
2021/03/17 13:20:17;;;;;;;8.40;7.20;;;;;;;;;;5007248;28;20030;-84
2021/03/17 13:22:44;;;;;;;7.78;5.00;;;;;;;;;;4982886;28;20076;-80
2021/03/17 13:25:10;;;;;;;6.30;5.07;;;;;;;;;;5005512;28;20022;-76
2021/03/17 13:27:36;;;;;;;6.88;5.68;;;;;;;;;;4994099;28;20092;-81
2021/03/17 13:30:04;;;;;;;6.80;5.57;;;;;;;;;;4995449;28;20018;-83
2021/03/17 13:32:31;;;;;;;7.88;5.88;;;;;;;;;;4994294;28;20097;-86
2021/03/17 13:34:57;;;;;;;10.77;7.38;;;;;;;;;;4994738;28;20113;-82
2021/03/17 13:37:24;;;;;;;8.57;4.97;;;;;;;;;;4994625;28;20121;-82
2021/03/17 13:39:50;;;;;;;7.60;5.95;;;;;;;;;;4994380;28;20034;-84
2021/03/17 13:42:16;;;;;;;9.05;6.65;;;;;;;;;;4981238;28;20089;-83
2021/03/17 13:44:42;;;;;;;8.65;7.15;;;;;;;;;;4995653;28;20073;-82
2021/03/17 13:47:09;;;;;;;13.40;8.32;;;;;;;;;;4994436;28;20093;-81
2021/03/17 13:49:35;;;;;;;9.35;7.88;;;;;;;;;;4994321;28;20034;-80
2021/03/17 13:52:01;;;;;;;9.80;8.80;;;;;;;;;;4999042;28;20084;-83
2021/03/17 13:54:27;;;;;;;10.52;8.15;;;;;;;;;;4991423;28;20367;-82
2021/03/17 13:56:53;;;;;;;7.28;4.82;;;;;;;;;;4998165;28;20034;-81
2021/03/17 13:59:20;;;;;;;8.75;7.45;;;;;;;;;;5002144;28;20046;-81
2021/03/17 14:01:46;;;;;;;14.35;11.05;;;;;;;;;;5007998;28;20080;-83
2021/03/17 14:04:12;;;;;;;9.80;7.43;;;;;;;;;;5001455;28;20023;-84
2021/03/17 14:06:38;;;;;;;8.10;5.15;;;;;;;;;;4992777;28;20105;-82
2021/03/17 14:09:04;;;;;;;13.95;11.68;;;;;;;;;;4995547;28;20038;-86
2021/03/17 14:11:30;;;;;;;9.15;8.23;;;;;;;;;;5000263;28;20534;-83
2021/03/17 14:13:56;;;;;;;9.40;7.03;;;;;;;;;;4984504;28;20069;-83
2021/03/17 14:16:23;;;;;;;7.78;6.20;;;;;;;;;;5007384;28;20146;-80
2021/03/17 14:18:49;;;;;;;7.53;5.75;;;;;;;;;;4976703;28;20073;-82
2021/03/17 14:21:16;;;;;;;12.27;8.68;;;;;;;;;;4993691;28;20058;-83
2021/03/17 14:23:42;;;;;;;7.53;5.80;;;;;;;;;;4994018;28;20127;-81
2021/03/17 14:26:08;;;;;;;9.43;7.18;;;;;;;;;;4993764;28;20495;-79
2021/03/17 14:28:34;;;;;;;8.60;7.63;;;;;;;;;;4999043;28;20029;-81
2021/03/17 14:31:02;;;;;;;13.77;8.35;;;;;;;;;;4993999;28;20105;-82
2021/03/17 14:33:28;;;;;;;10.18;7.65;;;;;;;;;;4993821;28;20038;-81
2021/03/17 14:35:55;;;;;;;15.95;10.45;;;;;;;;;;4997576;28;20026;-81
2021/03/17 14:38:21;;;;;;;14.55;9.60;;;;;;;;;;4991241;28;20092;-83
2021/03/17 14:40:47;;;;;;;18.42;12.95;;;;;;;;;;4996904;28;20036;-79
2021/03/17 14:43:14;;;;;;;8.48;6.47;;;;;;;;;;4993667;28;20097;-82
2021/03/17 14:45:40;;;;;;;10.35;8.48;;;;;;;;;;4993512;28;20473;-85
2021/03/17 14:48:07;;;;;;;9.25;7.30;;;;;;;;;;4993683;28;20568;-83
2021/03/17 14:50:35;;;;;;;13.57;8.38;;;;;;;;;;4993503;28;20050;-82